Alvordton, Ohio
Current Conditions -  °F | °C
As of 7:15 AM on Thursday 29 Jan 2015 (Local Time) from KUSE Reporting Station
Broken Clouds Broken Clouds  
Wind Chill: 22°   Ceiling: 8500
Heat Index: 30°   Visibility: 10mi
Dew Point: 25°   Wind: 9mph
Humidity: 80%   Direction: 160°SSE
Pressure: 29.79"   Gusts: NA
Location:  41.67°N, 84.44°W
Report Text: KUSE 291215Z AUTO 16008KT 10SM SCT060 BKN085 M01/M04 A2979 RMK AO2
Loading
Personal Weather Stations






























Interactive Weather Map New forecast layout! Learn more

10-Day Weather Forecast

Advertisements
Track Severe Weather on mobile